Main page
METAR-TAF:

METAR-TAF

Airports :

Thessaloniki International Airport Macedonia

Thessaloniki, Greece

latitude: 40-31N, longitude: 022-58E, elevation: 8 m

Current weather observation

The report was made 28 minutes ago, at 19:20 UTC
Wind 4 kt from the East
Temperature 15°C
Humidity 72%
Pressure 1020 hPa
Visibility 10 km or more
no clouds below 1500 m and no cumulonimbus

METAR: LGTS 241920Z 10004KT CAVOK 15/10 Q1020 NOSIG

Time: 22:48 (19:48 UTC)

Forecast

The report was made 2 hours and 48 minutes ago, at 17:00 UTC
Forecast valid from 24 at 18 UTC to 25 at 18 UTC
Wind 3 kt from variable directions
Visibility 10 km or more
Few clouds at a height of 2500 ft
Probability 30%
from 25 at 02 UTC to 25 at 06 UTC
Scattered clouds at a height of 800 ft
Becoming
from 25 at 10 UTC to 25 at 12 UTC
Wind 13 kt from the South/Southeast

TAF: LGTS 241700Z 2418/2518 VRB03KT 9999 FEW025 PROB30 2502/2506 SCT008 BECMG 2510/2512 15013KT

Weather observations and forecasts of more than 4000 airports (METAR and TAF reports).

The available stations are represented by yellow and red dots on the map.

Hover mouse over dot to see the name of the station.

Then click to see weather observations and forecasts.

To change the map : click on the green buttons with a black cross to zoom in, on the green button with a dash to zoom out, or on the green arrows for adjacent maps.


METAR-TAF: